KAFF/AFF METAR and TAF weather

Enter ICAO airport designator
Station Type Date Time Source
KAFF METAR 2024/04/15 07:55 UTC NOAA

KAFF 150755Z AUTO 34007KT 10SM CLR 04/M07 A2981 RMK AO2 SLP027 T00361067


Station Type Date Time Source
KAFF Decoded METAR 2024/04/15 07:55 UTC NOAA

Air Force Academy, CO, United States (KAFF) 38-58N 104-49W 1999M
Apr 15, 2024 - 03:55 AM EDT / 2024.04.15 0755 UTC
Wind: from the NNW (340 degrees) at 8 MPH (7 KT):0
Visibility: 10 mile(s):0
Sky conditions: clear
Temperature: 38.5 F (3.6 C)
Dew Point: 19.9 F (-6.7 C)
Relative Humidity: 46%
Pressure (altimeter): 29.81 in. Hg (1009 hPa)
ob: KAFF 150755Z AUTO 34007KT 10SM CLR 04/M07 A2981 RMK AO2 SLP027 T00361067
cycle: 8

Station Type Date Time Source
KAFF TAF 2024/04/13 19:06 UTC NOAA